Hlavní strana
METAR-TAF:

METAR-TAF

Letiště :

Ropná věž

Norne Fpso, Norsko

zeměpisná šířka: 66-01-48N, zeměpisná délka: 008-04-48E, výška: 10 m

Aktuální stav počasí

Zpráva byla vytvořena před 29 minutami, v 13:20 UTC
Západojihozápadní vítr 29 kt
Teplota 10°C
Vlhkost vzduchu 66%
Tlak 1006 hPa
Viditelnost 10 km a více
Polojasno ve výšce 3000 ft
Zataženo ve výšce 7500 ft

METAR: ENNE 251320Z 25029KT 9999 SCT030 OVC075 10/04 Q1006 W///S6

Čas: 15:49 (13:49 UTC)

Předpověď počasí

Zpráva byla vytvořena před 2 hodinami a 49 minutami, v 11:00 UTC
Předpověď platná od 25 v 12 UTC do 25 v 17 UTC
Západojihozápadní vítr 35 kt
Viditelnost 10 km a více
Polojasno ve výšce 2000 ft
slabé dešťové přeháňky
Pravděpodobnost 40%
od 25 v 12 UTC do 25 v 17 UTC
Oblačno až skoro zataženo ve výšce 1200 ft, Cumulonimbus.
dešťové přeháňky

TAF: ENNE 251100Z 2512/2517 25035KT 9999 -SHRA SCT020 PROB40 2512/2517 SHRA BKN012CB

Stav a předpovědi počasí z více než 4 000 letišť (zprávy METAR a TAF).

Červené a žluté tečky na mapě představují dostupné meteorologické stanice.

Když kurzor umístíte na tečku, zobrazí se název stanice.

Pak kliknutím zobrazíte stav a předpověď počasí.

Chcete-li změnit mapu, kliknutím na zelené tlačítko se znaménkem +mapu přiblížíte, kliknutím na zelené tlačítko se znaménkem – mapu oddálíte a kliknutím na zelené šipky přejdete na sousední mapy.


METAR-TAF: